Time;durP1;ratioP1;P1;durP2;ratioP2;P2;SDS_P1;SDS_P2;PMS_P1;PMS_P2;Temp;Humidity;BMP_temperature;BMP_pressure;BME280_temperature;BME280_humidity;BME280_pressure;Samples;Min_cycle;Max_cycle;Signal;HPM_P1;HPM_P2
2021/06/08 16:39:32;;;;;;;12.90;11.80;;;23.60;99.20;;;;;;5050475;28;20424;-40
2021/06/08 16:41:58;;;;;;;11.97;10.97;;;23.60;99.20;;;;;;5050010;28;21554;-40
2021/06/08 16:44:27;;;;;;;12.77;11.57;;;23.60;99.70;;;;;;5052599;28;20542;-40
2021/06/08 16:46:54;;;;;;;12.50;11.40;;;23.60;99.80;;;;;;5051581;28;20197;-41
2021/06/08 16:49:21;;;;;;;11.80;10.83;;;23.60;99.90;;;;;;5062025;28;20793;-42
2021/06/08 16:54:13;;;;;;;12.90;11.83;;;23.70;99.50;;;;;;5054067;28;20480;-39
2021/06/08 16:56:40;;;;;;;12.10;11.10;;;23.70;99.20;;;;;;5051620;28;20450;-39
2021/06/08 16:59:06;;;;;;;13.47;12.37;;;23.70;99.30;;;;;;5073835;28;20467;-40
2021/06/08 17:01:35;;;;;;;13.60;12.50;;;23.70;99.20;;;;;;5074574;28;20798;-41
2021/06/08 17:04:01;;;;;;;16.00;14.60;;;23.60;99.80;;;;;;5068145;28;21279;-40
2021/06/08 17:06:27;;;;;;;14.27;13.07;;;23.50;99.50;;;;;;5050004;28;20437;-39
2021/06/08 17:08:54;;;;;;;12.57;11.47;;;23.40;99.20;;;;;;5064024;28;20443;-41
2021/06/08 17:11:20;;;;;;;13.67;12.30;;;23.40;99.50;;;;;;5064775;28;20444;-41
2021/06/08 17:13:47;;;;;;;13.83;12.53;;;23.40;99.70;;;;;;5061163;28;21047;-40
2021/06/08 17:16:13;;;;;;;13.83;12.57;;;23.40;99.90;;;;;;5058576;28;20288;-40
2021/06/08 17:18:39;;;;;;;12.90;11.60;;;23.40;99.90;;;;;;5060470;28;21001;-40
2021/06/08 17:21:05;;;;;;;15.10;13.83;;;23.40;99.90;;;;;;5056205;28;20248;-39
2021/06/08 17:23:30;;;;;;;15.23;13.70;;;23.40;99.90;;;;;;5060766;28;20463;-39
2021/06/08 17:25:56;;;;;;;14.23;12.97;;;23.40;99.90;;;;;;5063997;28;20194;-43
2021/06/08 17:28:23;;;;;;;12.93;11.63;;;23.30;99.90;;;;;;5043775;28;20289;-42
2021/06/08 17:30:49;;;;;;;14.37;12.40;;;23.30;99.90;;;;;;5037595;28;20260;-41
2021/06/08 17:33:15;;;;;;;13.60;12.43;;;23.30;99.80;;;;;;5059615;28;20427;-40
2021/06/08 17:35:41;;;;;;;14.80;13.60;;;23.20;99.60;;;;;;5046735;28;20200;-40
2021/06/08 17:38:06;;;;;;;15.60;14.20;;;23.20;99.90;;;;;;5064688;28;20437;-41
2021/06/08 17:40:33;;;;;;;15.57;14.27;;;23.20;99.90;;;;;;5043559;28;20205;-39
2021/06/08 17:43:00;;;;;;;13.87;12.67;;;23.00;99.90;;;;;;5042574;28;20752;-39
2021/06/08 17:45:26;;;;;;;16.37;14.97;;;23.00;99.90;;;;;;5022626;28;20978;-39
2021/06/08 17:47:52;;;;;;;14.40;13.00;;;22.90;99.90;;;;;;5049171;28;20419;-40
2021/06/08 17:50:18;;;;;;;15.60;14.20;;;22.90;99.90;;;;;;5048135;28;20425;-40
2021/06/08 17:52:44;;;;;;;15.13;12.17;;;22.90;99.90;;;;;;5060117;28;20193;-41
2021/06/08 17:55:10;;;;;;;14.03;12.73;;;22.80;99.90;;;;;;5061982;28;20787;-39
2021/06/08 17:57:36;;;;;;;18.40;16.50;;;22.80;99.90;;;;;;5046607;28;20427;-40
2021/06/08 18:00:06;;;;;;;17.93;16.03;;;22.80;99.90;;;;;;5047356;28;20531;-40
2021/06/08 18:02:33;;;;;;;16.90;15.40;;;22.80;99.90;;;;;;5066856;28;20411;-40
2021/06/08 18:04:58;;;;;;;17.20;15.70;;;22.80;99.90;;;;;;5056008;28;20438;-39
2021/06/08 18:07:24;;;;;;;18.90;17.07;;;22.80;99.90;;;;;;5059245;28;20420;-42
2021/06/08 18:09:50;;;;;;;18.27;16.60;;;22.80;99.90;;;;;;5066113;28;20185;-41
2021/06/08 18:12:15;;;;;;;17.83;16.00;;;22.70;99.90;;;;;;5040110;28;20197;-41
2021/06/08 18:14:41;;;;;;;18.87;17.17;;;22.70;99.90;;;;;;5059805;28;20658;-39
2021/06/08 18:17:10;;;;;;;17.20;15.50;;;22.70;99.90;;;;;;5060217;28;20267;-41
2021/06/08 18:22:08;;;;;;;17.83;16.03;;;22.50;99.90;;;;;;5039683;28;20472;-40
2021/06/08 18:24:35;;;;;;;16.90;15.30;;;22.40;99.90;;;;;;5045657;28;20474;-41
2021/06/08 18:27:03;;;;;;;16.90;15.50;;;22.40;99.90;;;;;;5034169;28;20463;-40
2021/06/08 18:29:29;;;;;;;17.60;16.10;;;22.40;99.90;;;;;;5068148;28;20415;-40
2021/06/08 18:31:54;;;;;;;18.47;16.70;;;22.40;99.90;;;;;;5070827;28;20452;-41
2021/06/08 18:34:21;;;;;;;17.23;15.73;;;22.50;99.90;;;;;;5069251;28;20189;-40
2021/06/08 18:36:47;;;;;;;17.10;15.50;;;22.40;99.90;;;;;;5050973;28;20262;-40
2021/06/08 18:39:17;;;;;;;17.10;15.60;;;22.40;99.90;;;;;;5067528;28;20466;-39
2021/06/08 18:41:42;;;;;;;17.60;15.90;;;22.40;99.90;;;;;;5056879;28;92880;-40
2021/06/08 18:44:08;;;;;;;16.80;15.30;;;22.40;99.90;;;;;;5062020;28;20986;-41
2021/06/08 18:46:34;;;;;;;16.57;15.10;;;22.30;99.90;;;;;;5077269;28;20271;-39
2021/06/08 18:49:00;;;;;;;17.40;15.60;;;22.20;99.90;;;;;;5053003;28;20490;-40
2021/06/08 18:51:26;;;;;;;17.10;15.47;;;22.10;99.90;;;;;;5061052;28;20185;-39
2021/06/08 18:53:52;;;;;;;16.20;14.70;;;22.00;99.90;;;;;;5069596;28;20190;-42
2021/06/08 18:56:17;;;;;;;18.00;16.30;;;22.00;99.90;;;;;;5069782;28;20554;-39
2021/06/08 18:58:45;;;;;;;16.20;14.73;;;21.90;99.90;;;;;;5052424;28;20181;-39
2021/06/08 19:01:15;;;;;;;17.50;16.03;;;21.80;99.90;;;;;;5072549;28;20215;-39
2021/06/08 19:03:41;;;;;;;16.50;14.90;;;21.80;99.90;;;;;;5069987;28;20839;-39
2021/06/08 19:06:07;;;;;;;15.70;14.30;;;21.70;99.90;;;;;;5051742;28;20428;-39
2021/06/08 19:08:33;;;;;;;16.03;14.63;;;21.70;99.90;;;;;;5051049;28;20423;-40
2021/06/08 19:10:58;;;;;;;17.67;16.07;;;21.60;99.90;;;;;;5069516;28;20254;-39
2021/06/08 19:13:24;;;;;;;16.83;15.43;;;21.60;99.90;;;;;;5044236;28;20276;-39
2021/06/08 19:15:50;;;;;;;16.47;14.87;;;21.50;99.90;;;;;;5078132;28;20283;-40
2021/06/08 19:18:16;;;;;;;16.30;14.80;;;21.50;99.90;;;;;;5066424;28;20433;-40
2021/06/08 19:20:45;;;;;;;16.77;15.27;;;21.40;99.90;;;;;;5068896;28;20217;-39
2021/06/08 19:23:14;;;;;;;16.50;15.03;;;21.20;99.90;;;;;;5069043;28;20254;-40
2021/06/08 19:25:40;;;;;;;16.43;15.03;;;21.20;99.90;;;;;;5050958;28;20423;-39
2021/06/08 19:28:06;;;;;;;16.73;15.20;;;21.10;99.90;;;;;;5062256;28;20856;-39
2021/06/08 19:30:31;;;;;;;14.20;12.90;;;21.00;99.90;;;;;;5055744;28;20432;-40
2021/06/08 19:32:57;;;;;;;16.40;14.80;;;21.00;99.90;;;;;;5067891;28;20619;-39
2021/06/08 19:35:24;;;;;;;16.90;15.30;;;20.90;99.90;;;;;;5050942;28;20181;-39
2021/06/08 19:37:50;;;;;;;15.10;13.70;;;20.80;99.90;;;;;;5049456;28;20434;-40
2021/06/08 19:40:16;;;;;;;16.00;14.47;;;20.70;99.90;;;;;;5067321;28;20521;-40
2021/06/08 19:42:41;;;;;;;15.37;14.07;;;20.60;99.90;;;;;;5066893;28;20478;-39
2021/06/08 19:45:08;;;;;;;16.73;13.30;;;20.60;99.90;;;;;;5059541;28;20260;-39
2021/06/08 19:47:34;;;;;;;15.03;13.73;;;20.50;99.90;;;;;;5064997;28;20284;-40
2021/06/08 19:50:00;;;;;;;15.77;14.37;;;20.40;99.90;;;;;;5049959;28;20985;-39
2021/06/08 19:52:27;;;;;;;15.97;14.53;;;20.40;99.90;;;;;;5050755;28;20300;-40
2021/06/08 19:54:54;;;;;;;15.60;14.20;;;20.40;99.90;;;;;;5069016;28;20243;-39
2021/06/08 19:57:20;;;;;;;15.00;13.70;;;20.40;99.90;;;;;;5068121;28;20419;-41
2021/06/08 19:59:48;;;;;;;16.83;15.13;;;20.20;99.90;;;;;;5067176;28;20414;-39
2021/06/08 20:02:15;;;;;;;16.43;14.87;;;20.10;99.90;;;;;;5058475;28;20469;-40
2021/06/08 20:04:41;;;;;;;15.90;14.40;;;20.00;99.90;;;;;;5050568;28;20419;-39
2021/06/08 20:07:07;;;;;;;16.50;15.10;;;19.90;99.90;;;;;;5067969;28;20430;-39
2021/06/08 20:09:32;;;;;;;16.40;14.90;;;19.80;99.90;;;;;;5067959;28;20415;-40
2021/06/08 20:11:58;;;;;;;17.70;16.20;;;19.70;99.90;;;;;;5068177;28;20204;-39
2021/06/08 20:14:24;;;;;;;15.97;14.57;;;19.60;99.90;;;;;;5065377;28;20196;-40
2021/06/08 20:16:50;;;;;;;17.17;15.77;;;19.60;99.90;;;;;;5075709;28;20197;-39
2021/06/08 20:19:15;;;;;;;18.13;16.40;;;19.50;99.90;;;;;;5067728;28;20181;-39
2021/06/08 20:21:41;;;;;;;16.60;15.10;;;19.50;99.90;;;;;;5030838;28;20471;-39
2021/06/08 20:24:07;;;;;;;17.73;16.13;;;19.40;99.90;;;;;;5039953;28;20189;-39
2021/06/08 20:26:33;;;;;;;18.10;16.50;;;19.30;99.90;;;;;;5047259;28;20208;-39
2021/06/08 20:28:58;;;;;;;17.80;16.30;;;19.30;99.90;;;;;;5060430;28;20221;-39
2021/06/08 20:31:24;;;;;;;18.03;16.43;;;19.20;99.90;;;;;;5067706;28;20675;-39
2021/06/08 20:33:52;;;;;;;19.07;17.17;;;19.20;99.90;;;;;;5067733;28;20189;-40
2021/06/08 20:36:18;;;;;;;18.80;17.07;;;19.10;99.90;;;;;;5066935;28;20189;-39
2021/06/08 20:38:44;;;;;;;18.70;16.90;;;19.10;99.90;;;;;;5064984;28;20422;-39
2021/06/08 20:41:10;;;;;;;19.23;17.50;;;19.00;99.90;;;;;;5063064;28;20495;-39
2021/06/08 20:43:36;;;;;;;20.10;18.40;;;19.00;99.90;;;;;;5043702;28;20451;-40
2021/06/08 20:46:05;;;;;;;20.10;18.30;;;18.90;99.90;;;;;;5065840;28;20432;-39
2021/06/08 20:48:32;;;;;;;20.13;18.13;;;18.90;99.90;;;;;;5030895;28;20884;-39
2021/06/08 20:50:58;;;;;;;19.80;18.00;;;18.80;99.90;;;;;;5064954;28;20434;-39
2021/06/08 20:53:23;;;;;;;19.83;18.13;;;18.80;99.90;;;;;;5072904;28;20818;-40
2021/06/08 20:55:49;;;;;;;21.00;19.00;;;18.70;99.90;;;;;;5063378;28;20189;-39
2021/06/08 20:58:15;;;;;;;19.77;17.87;;;18.70;99.90;;;;;;5049043;28;20619;-40
2021/06/08 21:00:41;;;;;;;20.17;18.40;;;18.70;99.90;;;;;;5069242;28;20829;-39
2021/06/08 21:03:06;;;;;;;20.30;18.40;;;18.70;99.90;;;;;;5049266;28;20181;-39
2021/06/08 21:05:32;;;;;;;20.87;18.77;;;18.60;99.90;;;;;;5067565;28;20189;-39
2021/06/08 21:07:58;;;;;;;21.10;19.10;;;18.60;99.90;;;;;;5048773;28;20718;-40
2021/06/08 21:10:24;;;;;;;20.27;18.47;;;18.60;99.90;;;;;;5066716;28;20190;-39
2021/06/08 21:12:49;;;;;;;20.40;18.60;;;18.50;99.90;;;;;;5065219;28;20529;-40
2021/06/08 21:15:15;;;;;;;20.80;18.90;;;18.50;99.90;;;;;;5064692;28;20432;-39
2021/06/08 21:17:41;;;;;;;19.53;17.63;;;18.50;99.90;;;;;;5080721;28;20184;-39
2021/06/08 21:20:07;;;;;;;21.17;19.17;;;18.50;99.90;;;;;;5053700;28;20285;-41
2021/06/08 21:22:32;;;;;;;23.47;21.17;;;18.40;99.90;;;;;;5049212;28;20184;-39
2021/06/08 21:24:58;;;;;;;20.10;18.30;;;18.40;99.90;;;;;;5067310;28;20930;-39
2021/06/08 21:27:24;;;;;;;20.57;18.67;;;18.40;99.90;;;;;;5067776;28;20189;-39
2021/06/08 21:29:49;;;;;;;22.03;19.87;;;18.40;99.90;;;;;;5064879;28;20195;-40
2021/06/08 21:32:15;;;;;;;23.10;20.80;;;18.30;99.90;;;;;;5077283;28;20207;-39
2021/06/08 21:34:41;;;;;;;21.90;19.80;;;18.30;99.90;;;;;;5063698;28;20201;-40
2021/06/08 21:37:07;;;;;;;20.40;18.50;;;18.30;99.90;;;;;;5067326;28;20196;-39
2021/06/08 21:39:32;;;;;;;22.47;20.37;;;18.30;99.90;;;;;;5065381;28;20201;-39
2021/06/08 21:41:59;;;;;;;22.03;20.03;;;18.20;99.90;;;;;;5067161;28;20564;-39
2021/06/08 21:44:24;;;;;;;24.07;21.70;;;18.20;99.90;;;;;;5062862;28;20554;-39
2021/06/08 21:46:50;;;;;;;23.47;21.23;;;18.10;99.90;;;;;;5059453;28;20418;-39
2021/06/08 21:49:16;;;;;;;22.90;20.73;;;18.10;99.90;;;;;;5067213;28;20181;-39
2021/06/08 21:51:41;;;;;;;21.93;19.80;;;18.10;99.90;;;;;;5066887;28;20193;-39
2021/06/08 21:54:07;;;;;;;20.30;18.50;;;18.20;99.90;;;;;;5067377;28;20209;-39
2021/06/08 21:56:34;;;;;;;21.93;19.77;;;18.10;99.90;;;;;;5067627;28;20185;-39
2021/06/08 21:59:01;;;;;;;20.20;18.40;;;18.10;99.90;;;;;;5065333;28;20315;-39
2021/06/08 22:01:27;;;;;;;20.27;18.33;;;18.00;99.90;;;;;;5073345;28;20548;-39
2021/06/08 22:03:53;;;;;;;22.20;20.20;;;17.90;99.90;;;;;;5074845;28;20442;-39
2021/06/08 22:06:19;;;;;;;22.63;20.53;;;17.90;99.90;;;;;;5052911;28;20419;-39
2021/06/08 22:08:44;;;;;;;23.57;21.27;;;17.90;99.90;;;;;;5070606;28;20193;-39
2021/06/08 22:11:10;;;;;;;23.00;20.80;;;17.90;99.90;;;;;;5070853;28;20186;-39
2021/06/08 22:13:36;;;;;;;22.70;20.53;;;17.80;99.90;;;;;;5068034;28;20188;-39
2021/06/08 22:16:02;;;;;;;22.90;20.90;;;17.70;99.90;;;;;;5075180;28;20421;-39
2021/06/08 22:18:28;;;;;;;22.10;20.13;;;17.70;99.90;;;;;;5047654;28;20192;-39
2021/06/08 22:20:54;;;;;;;22.60;20.40;;;17.70;99.90;;;;;;5051997;28;20551;-39
2021/06/08 22:23:20;;;;;;;21.80;19.90;;;17.70;99.90;;;;;;5070917;28;20481;-39
2021/06/08 22:25:46;;;;;;;24.87;22.40;;;17.60;99.90;;;;;;5071241;28;20510;-39
2021/06/08 22:28:12;;;;;;;22.70;20.40;;;17.60;99.90;;;;;;5069647;28;20495;-39
2021/06/08 22:30:38;;;;;;;22.80;20.70;;;17.50;99.90;;;;;;5061518;28;20261;-39
2021/06/08 22:33:05;;;;;;;23.37;21.07;;;17.50;99.90;;;;;;5073895;28;20576;-39
2021/06/08 22:35:31;;;;;;;23.83;21.33;;;17.60;99.90;;;;;;5070927;28;20430;-39
2021/06/08 22:37:56;;;;;;;25.00;22.37;;;17.60;99.90;;;;;;5071054;28;20429;-39
2021/06/08 22:40:25;;;;;;;23.90;21.70;;;17.60;99.90;;;;;;5051139;28;20447;-38
2021/06/08 22:42:51;;;;;;;24.47;22.07;;;17.60;99.90;;;;;;5070715;28;20676;-39
2021/06/08 22:45:18;;;;;;;27.03;24.53;;;17.60;99.90;;;;;;5063593;28;20432;-38
2021/06/08 22:47:44;;;;;;;26.73;24.13;;;17.60;99.90;;;;;;5075810;28;20512;-39
2021/06/08 22:50:14;;;;;;;27.97;25.23;;;17.70;99.90;;;;;;5070266;28;20468;-39
2021/06/08 22:52:40;;;;;;;29.10;26.10;;;17.70;99.90;;;;;;5052957;28;20516;-39
2021/06/08 22:55:08;;;;;;;32.77;29.47;;;17.80;99.90;;;;;;5070707;28;20435;-39
2021/06/08 22:57:34;;;;;;;33.80;30.57;;;17.80;99.90;;;;;;5070313;28;20969;-39
2021/06/08 22:59:59;;;;;;;28.97;25.97;;;17.90;99.90;;;;;;5063272;28;20428;-39
2021/06/08 23:02:25;;;;;;;29.53;26.70;;;18.00;99.90;;;;;;5074336;28;20193;-39
2021/06/08 23:04:51;;;;;;;32.60;29.30;;;18.00;99.90;;;;;;5077664;28;20193;-39
2021/06/08 23:07:17;;;;;;;35.20;31.60;;;18.10;99.90;;;;;;5085758;28;20643;-39
2021/06/08 23:09:42;;;;;;;31.80;28.70;;;18.20;99.90;;;;;;5069663;28;20189;-39
2021/06/08 23:12:10;;;;;;;33.37;29.97;;;18.10;99.90;;;;;;5051508;28;20431;-39
2021/06/08 23:14:36;;;;;;;31.03;27.93;;;18.10;99.90;;;;;;5070962;28;20279;-39
2021/06/08 23:17:01;;;;;;;31.80;28.43;;;18.00;99.90;;;;;;5051380;28;20977;-38
2021/06/08 23:19:27;;;;;;;30.90;28.00;;;18.10;99.90;;;;;;5053595;28;20873;-40
2021/06/08 23:21:53;;;;;;;31.60;28.50;;;18.10;99.90;;;;;;5052216;28;20540;-39
2021/06/08 23:24:19;;;;;;;30.47;27.47;;;18.10;99.90;;;;;;5070421;28;20204;-39
2021/06/08 23:26:46;;;;;;;28.20;25.50;;;18.20;99.90;;;;;;5069855;28;20561;-39
2021/06/08 23:29:12;;;;;;;28.83;26.10;;;18.20;99.90;;;;;;5068462;28;20798;-39
2021/06/08 23:31:38;;;;;;;29.97;27.17;;;18.20;99.90;;;;;;5054233;28;20528;-39
2021/06/08 23:34:03;;;;;;;28.03;25.13;;;18.20;99.90;;;;;;5073495;28;20739;-40
2021/06/08 23:36:29;;;;;;;26.87;24.27;;;18.20;99.90;;;;;;5069920;28;20531;-39
2021/06/08 23:38:55;;;;;;;27.00;24.40;;;18.20;99.90;;;;;;5069439;28;20193;-39
2021/06/08 23:41:20;;;;;;;29.67;26.70;;;18.20;99.90;;;;;;5067876;28;20236;-40
2021/06/08 23:43:46;;;;;;;28.00;25.27;;;18.20;99.90;;;;;;5069638;28;20320;-40
2021/06/08 23:46:12;;;;;;;27.93;25.13;;;18.20;99.90;;;;;;5062796;28;20403;-39
2021/06/08 23:48:39;;;;;;;28.80;26.20;;;18.10;99.90;;;;;;5071647;28;20276;-39
2021/06/08 23:51:05;;;;;;;27.47;24.87;;;18.10;99.90;;;;;;5051561;28;20492;-39
2021/06/08 23:53:31;;;;;;;26.13;23.63;;;18.10;99.90;;;;;;5069435;28;20419;-39
2021/06/08 23:55:59;;;;;;;27.30;24.73;;;18.10;99.90;;;;;;5069459;28;20477;-39
2021/06/08 23:58:25;;;;;;;27.53;24.73;;;18.00;99.90;;;;;;5069402;28;20193;-39
